Aérodrome :
LOGIN :

S'inscrire | Disclaimer

   EN    FR    IT 

 










Légende :    VFR   VFR Marginal   IFR   IFR Intensif   IFR Très Intensif
Visi : 
Plafond : 
>= 8 km
>= 3000ft
5 à 8 km
1000 à 3000 ft
1500m à 5 km
500 à 1000 ft
800 à 1500m
200 à 500 ft
< 800m
< 200 ft
Symboles :   Orages  Brouillard  Fortes neiges  Fortes précipitations  Vent > 20 kt
SIGMETs :   Divers  Orages  Givrage  Turbulence  Onde Orograph.  Cendres Volcan.







- Altitude de l'aérodrome : 138 ft
- Code IATA : BIO


LEBB - Bilbao

DERNIER METAR :
  • 221000Z 12004KT 040V210 CAVOK 21/12 Q1019 NOSIG

METARs EXPIRÉS :
  • 220930Z 15007KT 070V180 CAVOK 20/11 Q1019 NOSIG
  • 220900Z 12008KT 070V160 CAVOK 19/12 Q1019 NOSIG
  • 220830Z 11005KT 060V160 CAVOK 18/11 Q1020 NOSIG
  • 220800Z 13005KT 080V160 CAVOK 16/11 Q1020 NOSIG
  • 220730Z 14006KT 100V170 CAVOK 14/10 Q1020 NOSIG

TAF TAF LEBB
Valide du 22 à 06h jusqu'au 23 à 06h UTC


220500Z 2206/2306 10003KT CAVOK TX23/2212Z TN10/2206Z
BECMG 2208/2211 07008KT
BECMG 2219/2221 VRB03KT
PROB30
TEMPO 2223/2305 3000 BR
Pas de NOTAMs connus pour ce terrain.



MET'MAP, la Météo Aéronautique d'un coup d'oeil ! - Copyright ORBIFLY Décembre 2007 - Disclaimer

ORBIFLY MET'MAP TEAM :

Programmation & Développement : Alexandra Zaïnal
Conception & Développement : Baudouin d'Aumeries
Co-Programmation & Développement : Marc-Olivier Méhu
Soutien technique & logistique : Manuel Goepfert

Contact : metmap@orbifly.com




SOURCES & CREDITS :

   NOAA